createdAt,value
2023-04-12T00:01:18.936Z,2.30
2023-04-12T00:03:50.941Z,2.53
2023-04-12T00:06:27.578Z,2.50
2023-04-12T00:08:54.290Z,5.03
2023-04-12T00:11:21.253Z,3.33
2023-04-12T00:13:47.890Z,5.57
2023-04-12T00:16:19.529Z,6.23
2023-04-12T00:18:46.229Z,2.03
2023-04-12T00:21:13.334Z,7.13
2023-04-12T00:23:40.063Z,2.03
2023-04-12T00:26:09.251Z,8.47
2023-04-12T00:28:35.924Z,4.00
2023-04-12T00:31:03.171Z,4.67
2023-04-12T00:33:33.306Z,3.65
2023-04-12T00:35:59.996Z,4.77
2023-04-12T00:38:29.135Z,6.93
2023-04-12T00:40:58.429Z,2.60
2023-04-12T00:43:27.822Z,8.30
2023-04-12T00:45:59.086Z,5.90
2023-04-12T00:48:27.321Z,2.33
2023-04-12T00:50:57.702Z,7.75
2023-04-12T00:53:24.401Z,5.43
2023-04-12T00:55:54.530Z,4.87
2023-04-12T00:58:24.184Z,3.33
2023-04-12T01:00:52.845Z,6.13
2023-04-12T01:03:23.634Z,4.37
2023-04-12T01:06:13.831Z,4.67
2023-04-12T01:08:58.310Z,3.85
2023-04-12T01:11:49.205Z,3.50
2023-04-12T01:14:28.227Z,3.33
2023-04-12T01:17:00.574Z,2.93
2023-04-12T01:19:35.999Z,2.07
2023-04-12T01:22:11.658Z,5.17
2023-04-12T01:24:52.851Z,3.90
2023-04-12T01:27:54.279Z,2.87
2023-04-12T01:30:21.398Z,4.10
2023-04-12T01:32:53.281Z,5.43
2023-04-12T01:35:24.884Z,6.67
2023-04-12T01:37:52.280Z,4.40
2023-04-12T01:40:19.361Z,3.57
2023-04-12T01:42:49.526Z,3.40
2023-04-12T01:45:16.439Z,6.83
2023-04-12T01:47:45.806Z,5.33
2023-04-12T01:50:18.733Z,4.67
2023-04-12T01:53:04.799Z,10.43
2023-04-12T01:55:37.058Z,2.97
2023-04-12T01:58:07.491Z,7.68
2023-04-12T02:00:38.805Z,4.03
2023-04-12T02:03:08.031Z,2.63
2023-04-12T02:05:36.983Z,6.27
2023-04-12T02:08:04.677Z,3.97
2023-04-12T02:10:39.677Z,4.87
2023-04-12T02:13:06.529Z,4.17
2023-04-12T02:15:40.585Z,2.17
2023-04-12T02:18:07.315Z,6.57
2023-04-12T02:20:36.293Z,3.57
2023-04-12T02:23:03.052Z,2.20
2023-04-12T02:25:29.833Z,1.83
2023-04-12T02:27:58.629Z,2.13
2023-04-12T02:30:25.572Z,4.10
2023-04-12T02:32:57.857Z,4.63
2023-04-12T02:35:27.214Z,1.33
2023-04-12T02:37:58.782Z,2.37
2023-04-12T02:40:25.696Z,3.57
2023-04-12T02:42:54.649Z,6.90
2023-04-12T02:45:21.649Z,2.23
2023-04-12T02:47:48.418Z,2.67
2023-04-12T02:50:15.106Z,3.50
2023-04-12T02:52:44.031Z,2.37
2023-04-12T02:55:10.838Z,5.30
2023-04-12T02:57:37.597Z,1.53
2023-04-12T03:00:23.003Z,2.60
2023-04-12T03:02:51.547Z,2.17
2023-04-12T03:05:20.806Z,3.00
2023-04-12T03:07:49.046Z,3.17
2023-04-12T03:10:20.374Z,2.63
2023-04-12T03:12:47.083Z,2.60
2023-04-12T03:15:17.694Z,2.23
2023-04-12T03:17:46.900Z,2.40
2023-04-12T03:20:20.361Z,3.00
2023-04-12T03:22:51.616Z,3.77
2023-04-12T03:25:18.681Z,2.13
2023-04-12T03:27:45.609Z,2.53
2023-04-12T03:30:12.974Z,2.63
2023-04-12T03:32:41.813Z,2.20
2023-04-12T03:35:12.007Z,3.60
2023-04-12T03:37:46.660Z,1.73
2023-04-12T03:40:13.737Z,1.63
2023-04-12T03:42:40.518Z,1.70
2023-04-12T03:45:12.184Z,2.67
2023-04-12T03:47:38.967Z,2.37
2023-04-12T03:52:36.833Z,2.70
2023-04-12T03:55:07.156Z,3.47
2023-04-12T03:57:33.977Z,4.83
2023-04-12T04:00:00.740Z,1.00
2023-04-12T04:02:27.839Z,2.20
2023-04-12T04:04:54.759Z,6.00
2023-04-12T04:07:25.735Z,1.27
2023-04-12T04:09:56.594Z,1.80
2023-04-12T04:12:23.330Z,2.50
2023-04-12T04:14:49.968Z,7.13
2023-04-12T04:17:23.675Z,1.65
2023-04-12T04:19:52.822Z,2.73
2023-04-12T04:22:21.513Z,2.07
2023-04-12T04:24:48.357Z,1.37
2023-04-12T04:27:20.437Z,2.97
2023-04-12T04:29:51.076Z,1.40
2023-04-12T04:32:17.766Z,2.30
2023-04-12T04:34:44.684Z,1.67
2023-04-12T04:37:12.389Z,1.33
2023-04-12T04:39:39.206Z,2.53
2023-04-12T04:42:06.780Z,2.30
2023-04-12T04:44:36.137Z,4.10
2023-04-12T04:47:03.566Z,2.53
2023-04-12T04:49:30.592Z,1.13
2023-04-12T04:51:57.229Z,4.50
2023-04-12T04:54:23.927Z,2.85
2023-04-12T04:56:50.544Z,2.33
2023-04-12T04:59:17.982Z,1.10
2023-04-12T05:01:44.893Z,1.73
2023-04-12T05:04:14.217Z,2.23
2023-04-12T05:06:40.964Z,5.87
2023-04-12T05:09:10.144Z,7.93
2023-04-12T05:11:37.325Z,5.37
2023-04-12T05:14:04.008Z,7.10
2023-04-12T05:16:30.798Z,5.63
2023-04-12T05:18:57.634Z,3.97
2023-04-12T05:21:24.721Z,4.47
2023-04-12T05:23:51.458Z,5.07
2023-04-12T05:26:21.604Z,1.60
2023-04-12T05:28:48.411Z,5.43
2023-04-12T05:31:15.135Z,4.27
2023-04-12T05:33:44.897Z,4.60
2023-04-12T05:36:12.594Z,5.10
2023-04-12T05:38:44.488Z,6.13
2023-04-12T05:41:11.115Z,5.97
2023-04-12T05:43:37.869Z,4.70
2023-04-12T05:46:11.395Z,3.43
2023-04-12T05:48:40.573Z,7.33
2023-04-12T05:51:11.908Z,5.33
2023-04-12T05:53:38.591Z,11.87
2023-04-12T05:56:07.787Z,12.97
2023-04-12T05:58:34.712Z,18.33
2023-04-12T06:01:01.416Z,6.50
2023-04-12T06:03:30.582Z,7.40
2023-04-12T06:06:00.284Z,7.97
2023-04-12T06:08:29.377Z,7.53
2023-04-12T06:10:58.427Z,10.90
2023-04-12T06:13:27.499Z,4.67
2023-04-12T06:15:56.507Z,9.97
2023-04-12T06:18:25.527Z,9.03
2023-04-12T06:20:52.247Z,8.23
2023-04-12T06:23:19.502Z,21.13
2023-04-12T06:25:49.125Z,13.77
2023-04-12T06:28:16.650Z,17.07
2023-04-12T06:30:45.798Z,5.27
2023-04-12T06:33:12.586Z,9.87
2023-04-12T06:35:41.762Z,13.03
2023-04-12T06:38:08.512Z,13.32
2023-04-12T06:40:37.509Z,6.73
2023-04-12T06:43:04.133Z,7.40
2023-04-12T06:45:30.948Z,11.93
2023-04-12T06:47:58.506Z,4.00
2023-04-12T06:50:26.392Z,5.93
2023-04-12T06:52:53.317Z,5.40
2023-04-12T06:55:20.164Z,8.13
2023-04-12T06:57:47.182Z,12.37
2023-04-12T07:00:14.295Z,10.53
2023-04-12T07:02:41.189Z,5.77
2023-04-12T07:05:08.323Z,13.33
2023-04-12T07:07:34.954Z,12.10
2023-04-12T07:10:03.308Z,8.87
2023-04-12T07:12:30.380Z,12.80
2023-04-12T07:14:59.477Z,10.37
2023-04-12T07:17:28.839Z,8.93
2023-04-12T07:19:57.850Z,9.03
2023-04-12T07:22:24.747Z,15.83
2023-04-12T07:24:51.617Z,12.30
2023-04-12T07:27:20.873Z,9.53
2023-04-12T07:29:47.571Z,12.07
2023-04-12T07:32:14.343Z,20.90
2023-04-12T07:34:43.271Z,12.30
2023-04-12T07:37:09.934Z,17.57
2023-04-12T07:39:40.658Z,19.10
2023-04-12T07:42:10.464Z,17.57
2023-04-12T07:44:38.816Z,24.27
2023-04-12T07:47:08.455Z,35.60
2023-04-12T07:49:35.562Z,28.33
2023-04-12T07:52:02.602Z,19.77
2023-04-12T07:54:29.327Z,16.03
2023-04-12T07:57:00.576Z,27.20
2023-04-12T07:59:30.535Z,26.97
2023-04-12T08:02:00.656Z,15.17
2023-04-12T08:04:30.420Z,20.03
2023-04-12T08:06:57.258Z,24.77
2023-04-12T08:09:24.727Z,7.77
2023-04-12T08:11:52.216Z,13.50
2023-04-12T08:14:18.876Z,10.60
2023-04-12T08:16:48.128Z,10.97
2023-04-12T08:19:14.908Z,8.13
2023-04-12T08:21:44.130Z,6.17
2023-04-12T08:24:15.731Z,6.23
2023-04-12T08:26:42.404Z,10.57
2023-04-12T08:29:09.123Z,10.37
2023-04-12T08:31:36.048Z,13.93
2023-04-12T08:34:02.811Z,13.77
2023-04-12T08:36:31.809Z,9.13
2023-04-12T08:39:02.495Z,10.17
2023-04-12T08:41:29.461Z,12.53
2023-04-12T08:44:01.213Z,18.77
2023-04-12T08:46:32.807Z,18.53
2023-04-12T08:48:59.571Z,18.67
2023-04-12T08:51:27.053Z,26.23
2023-04-12T08:53:54.123Z,11.83
2023-04-12T08:56:22.740Z,13.90
2023-04-12T08:58:51.138Z,13.47
2023-04-12T09:01:21.266Z,14.70
2023-04-12T09:03:48.448Z,13.27
2023-04-12T09:06:15.622Z,13.50
2023-04-12T09:08:52.903Z,10.17
2023-04-12T09:11:24.734Z,13.97
2023-04-12T09:13:51.724Z,19.03
2023-04-12T09:16:21.229Z,13.27
2023-04-12T09:18:49.865Z,7.33
2023-04-12T09:21:19.029Z,4.70
2023-04-12T09:24:14.553Z,5.37
2023-04-12T09:26:41.911Z,4.53
2023-04-12T09:29:27.089Z,3.37
2023-04-12T09:32:06.192Z,1.70
2023-04-12T09:34:36.598Z,4.40
2023-04-12T09:37:16.349Z,6.80
2023-04-12T09:39:45.599Z,7.40
2023-04-12T09:42:29.678Z,5.33
2023-04-12T09:45:01.436Z,9.23
2023-04-12T09:47:39.173Z,3.70
2023-04-12T09:50:07.946Z,5.97
2023-04-12T09:52:39.035Z,6.53
2023-04-12T09:55:10.890Z,3.23
2023-04-12T09:57:43.323Z,4.50
2023-04-12T10:00:17.572Z,9.33
2023-04-12T10:02:51.681Z,9.80
2023-04-12T10:05:25.639Z,6.00
2023-04-12T10:07:55.754Z,9.90
2023-04-12T10:10:23.417Z,13.03
2023-04-12T10:12:50.731Z,17.87
2023-04-12T10:15:23.491Z,32.37
2023-04-12T10:17:54.498Z,14.65
2023-04-12T10:20:24.852Z,19.63
2023-04-12T10:22:54.422Z,22.27
2023-04-12T10:25:26.913Z,27.33
2023-04-12T10:27:56.735Z,24.57
2023-04-12T10:30:30.567Z,17.70
2023-04-12T10:33:03.638Z,14.13
2023-04-12T10:35:49.037Z,25.40
2023-04-12T10:38:16.682Z,16.40
2023-04-12T10:41:08.799Z,13.20
2023-04-12T10:43:37.890Z,14.67
2023-04-12T10:46:06.522Z,12.73
2023-04-12T10:48:39.873Z,9.53
2023-04-12T10:51:29.746Z,4.73
2023-04-12T10:54:10.816Z,8.83
2023-04-12T10:56:41.682Z,4.43
2023-04-12T10:59:12.767Z,11.40
2023-04-12T11:01:40.945Z,4.67
2023-04-12T11:04:15.011Z,5.60
2023-04-12T11:06:41.982Z,5.00
2023-04-12T11:09:22.097Z,6.67
2023-04-12T11:11:49.716Z,7.33
2023-04-12T11:14:20.487Z,7.00
2023-04-12T11:17:05.911Z,5.73
2023-04-12T11:19:48.289Z,6.73
2023-04-12T11:22:19.260Z,5.03
2023-04-12T11:24:51.282Z,16.63
2023-04-12T11:27:22.133Z,7.07
2023-04-12T11:29:55.691Z,9.73
2023-04-12T11:32:24.975Z,5.93
2023-04-12T11:34:51.906Z,6.60
2023-04-12T11:37:20.574Z,2.33
2023-04-12T11:39:49.753Z,2.27
2023-04-12T11:42:18.882Z,1.30
2023-04-12T11:47:20.898Z,9.53
2023-04-12T11:49:52.784Z,20.70
2023-04-12T11:52:20.868Z,12.57
2023-04-12T11:54:51.307Z,7.17
2023-04-12T11:57:19.261Z,5.10
2023-04-12T11:59:53.144Z,3.05
2023-04-12T12:02:24.510Z,3.27
2023-04-12T12:04:52.793Z,1.13
2023-04-12T12:07:27.899Z,3.08
2023-04-12T12:09:57.562Z,4.87
2023-04-12T12:12:30.020Z,13.30
2023-04-12T12:15:02.196Z,12.23
2023-04-12T12:17:29.106Z,6.83
2023-04-12T12:19:59.461Z,3.87
2023-04-12T12:22:26.274Z,8.50
2023-04-12T12:24:58.825Z,2.60
2023-04-12T12:27:35.571Z,0.50
2023-04-12T12:30:05.470Z,0.93
2023-04-12T12:32:37.166Z,8.10
2023-04-12T12:35:09.540Z,10.80
2023-04-12T12:37:36.550Z,4.40
2023-04-12T12:40:21.382Z,3.00
2023-04-12T12:42:58.882Z,14.03
2023-04-12T12:45:28.933Z,12.20
2023-04-12T12:48:05.026Z,5.70
2023-04-12T12:50:34.416Z,1.03
2023-04-12T12:53:05.599Z,2.83
2023-04-12T12:55:32.778Z,4.87
2023-04-12T12:58:07.878Z,5.47
2023-04-12T13:00:37.567Z,2.83
2023-04-12T13:03:04.741Z,1.33
2023-04-12T13:05:34.052Z,1.63
2023-04-12T13:08:00.711Z,0.90
2023-04-12T13:10:29.624Z,2.30
2023-04-12T13:12:56.427Z,2.20
2023-04-12T13:15:24.692Z,1.33
2023-04-12T13:17:55.246Z,2.27
2023-04-12T13:20:22.829Z,0.83
2023-04-12T13:22:54.220Z,3.70
2023-04-12T13:25:23.527Z,2.30
2023-04-12T13:27:51.401Z,1.67
2023-04-12T13:30:19.694Z,1.43
2023-04-12T13:32:46.700Z,1.40
2023-04-12T13:35:13.665Z,2.10
2023-04-12T13:37:40.520Z,1.77
2023-04-12T13:40:09.834Z,2.33
2023-04-12T13:42:36.560Z,6.00
2023-04-12T13:45:04.519Z,1.70
2023-04-12T13:47:33.938Z,5.10
2023-04-12T13:50:05.688Z,3.17
2023-04-12T13:52:32.808Z,1.30
2023-04-12T13:54:59.683Z,1.80
2023-04-12T13:57:28.749Z,3.40
2023-04-12T13:59:55.529Z,1.37
2023-04-12T14:02:25.082Z,10.18
2023-04-12T14:04:53.364Z,7.47
2023-04-12T14:07:24.805Z,9.10
2023-04-12T14:09:51.457Z,5.10
2023-04-12T14:12:18.604Z,10.07
2023-04-12T14:14:45.249Z,2.23
2023-04-12T14:17:12.016Z,2.57
2023-04-12T14:19:41.037Z,2.37
2023-04-12T14:22:07.680Z,0.93
2023-04-12T14:24:37.005Z,2.30
2023-04-12T14:27:04.531Z,2.70
2023-04-12T14:29:31.224Z,3.33
2023-04-12T14:31:57.867Z,1.87
2023-04-12T14:34:24.555Z,0.70
2023-04-12T14:36:51.410Z,1.50
2023-04-12T14:39:18.137Z,2.23
2023-04-12T14:41:44.831Z,0.73
2023-04-12T14:44:14.061Z,1.48
2023-04-12T14:46:45.184Z,0.60
2023-04-12T14:49:11.968Z,1.83
2023-04-12T14:51:38.628Z,1.03
2023-04-12T14:54:07.460Z,0.50
2023-04-12T14:56:43.660Z,1.10
2023-04-12T14:59:13.974Z,0.90
2023-04-12T15:01:41.535Z,1.73
2023-04-12T15:04:09.043Z,1.00
2023-04-12T15:06:42.154Z,0.80
2023-04-12T15:09:11.460Z,1.40
2023-04-12T15:11:46.096Z,2.30
2023-04-12T15:14:19.750Z,0.93
2023-04-12T15:16:49.566Z,0.53
2023-04-12T15:19:22.244Z,0.43
2023-04-12T15:21:54.979Z,3.20
2023-04-12T15:24:22.591Z,1.33
2023-04-12T15:26:51.502Z,0.30
2023-04-12T15:29:19.981Z,0.90
2023-04-12T15:31:46.981Z,1.70
2023-04-12T15:34:14.228Z,0.40
2023-04-12T15:36:46.214Z,0.93
2023-04-12T15:39:13.768Z,0.80
2023-04-12T15:41:41.709Z,3.27
2023-04-12T15:44:09.838Z,1.93
2023-04-12T15:46:36.654Z,3.10
2023-04-12T15:49:03.873Z,1.07
2023-04-12T15:51:32.014Z,2.80
2023-04-12T15:53:59.032Z,0.80
2023-04-12T15:56:25.951Z,2.27
2023-04-12T15:58:53.936Z,1.83
2023-04-12T16:01:20.831Z,0.53
2023-04-12T16:03:51.328Z,0.70
2023-04-12T16:06:20.663Z,0.90
2023-04-12T16:08:50.322Z,1.47
2023-04-12T16:11:18.662Z,3.58
2023-04-12T16:13:48.011Z,6.03
2023-04-12T16:16:22.544Z,3.00
2023-04-12T16:18:49.564Z,5.40
2023-04-12T16:21:20.071Z,6.38
2023-04-12T16:23:48.377Z,3.73
2023-04-12T16:26:27.571Z,1.37
2023-04-12T16:28:57.220Z,1.10
2023-04-12T16:31:26.541Z,3.20
2023-04-12T16:33:54.801Z,8.80
2023-04-12T16:36:24.289Z,4.73
2023-04-12T16:38:55.181Z,2.17
2023-04-12T16:41:22.254Z,14.03
2023-04-12T16:43:52.803Z,10.93
2023-04-12T16:46:21.001Z,16.57
2023-04-12T16:48:50.089Z,10.57
2023-04-12T16:51:17.282Z,9.13
2023-04-12T16:53:44.141Z,4.17
2023-04-12T16:56:10.786Z,6.63
2023-04-12T16:58:40.087Z,8.43
2023-04-12T17:01:07.868Z,10.30
2023-04-12T17:03:35.139Z,5.40
2023-04-12T17:06:02.076Z,5.30
2023-04-12T17:08:28.835Z,3.03
2023-04-12T17:10:55.544Z,2.90
2023-04-12T17:13:24.728Z,2.90
2023-04-12T17:15:51.517Z,2.47
2023-04-12T17:18:18.442Z,1.20
2023-04-12T17:20:49.978Z,0.97
2023-04-12T17:23:19.029Z,8.07
2023-04-12T17:25:48.387Z,0.97
2023-04-12T17:28:15.281Z,1.70
2023-04-12T17:30:44.389Z,1.40
2023-04-12T17:33:13.548Z,1.37
2023-04-12T17:35:42.464Z,4.10
2023-04-12T17:38:09.201Z,2.40
2023-04-12T17:40:38.421Z,3.53
2023-04-12T17:43:05.572Z,3.67
2023-04-12T17:45:33.802Z,1.47
2023-04-12T17:48:01.070Z,1.63
2023-04-12T17:50:27.909Z,1.90
2023-04-12T17:52:58.381Z,1.50
2023-04-12T17:55:25.895Z,1.37
2023-04-12T17:57:55.350Z,1.00
2023-04-12T18:00:24.351Z,2.33
2023-04-12T18:02:51.412Z,2.67
2023-04-12T18:05:23.485Z,2.37
2023-04-12T18:07:50.228Z,1.47
2023-04-12T18:10:21.160Z,2.22
2023-04-12T18:12:48.513Z,3.10
2023-04-12T18:15:20.159Z,3.07
2023-04-12T18:17:46.944Z,5.10
2023-04-12T18:20:14.088Z,1.70
2023-04-12T18:22:40.969Z,3.03
2023-04-12T18:25:11.583Z,3.23
2023-04-12T18:27:38.373Z,2.30
2023-04-12T18:30:05.603Z,5.17
2023-04-12T18:32:34.583Z,2.07
2023-04-12T18:35:01.939Z,4.00
2023-04-12T18:37:28.704Z,1.90
2023-04-12T18:39:57.893Z,1.55
2023-04-12T18:42:24.777Z,1.93
2023-04-12T18:44:56.413Z,1.40
2023-04-12T18:47:23.240Z,1.60
2023-04-12T18:49:50.025Z,1.83
2023-04-12T18:52:16.731Z,2.15
2023-04-12T18:54:47.859Z,2.77
2023-04-12T18:57:15.671Z,1.60
2023-04-12T18:59:44.743Z,1.50
2023-04-12T19:02:12.500Z,1.30
2023-04-12T19:04:41.170Z,3.63
2023-04-12T19:07:08.174Z,2.83
2023-04-12T19:09:34.953Z,1.50
2023-04-12T19:12:05.324Z,2.50
2023-04-12T19:14:32.089Z,3.07
2023-04-12T19:16:58.814Z,4.30
2023-04-12T19:19:27.955Z,4.90
2023-04-12T19:21:54.998Z,6.80
2023-04-12T19:24:24.436Z,4.97
2023-04-12T19:26:51.388Z,4.57
2023-04-12T19:29:19.621Z,4.83
2023-04-12T19:31:51.920Z,9.77
2023-04-12T19:34:18.678Z,7.40
2023-04-12T19:36:45.927Z,3.93
2023-04-12T19:39:12.746Z,4.20
2023-04-12T19:41:41.981Z,3.60
2023-04-12T19:44:11.206Z,4.07
2023-04-12T19:46:38.968Z,4.37
2023-04-12T19:49:06.208Z,3.57
2023-04-12T19:51:35.176Z,3.33
2023-04-12T19:54:04.078Z,4.00
2023-04-12T19:56:31.440Z,3.75
2023-04-12T19:58:58.470Z,3.83
2023-04-12T20:01:30.229Z,3.70
2023-04-12T20:03:59.189Z,3.00
2023-04-12T20:06:28.780Z,3.53
2023-04-12T20:08:57.921Z,2.87
2023-04-12T20:11:27.252Z,2.93
2023-04-12T20:13:56.508Z,2.40
2023-04-12T20:16:25.892Z,4.27
2023-04-12T20:18:57.561Z,2.53
2023-04-12T20:21:27.769Z,1.60
2023-04-12T20:23:54.569Z,7.20
2023-04-12T20:26:21.308Z,1.73
2023-04-12T20:28:48.746Z,3.00
2023-04-12T20:31:15.979Z,1.87
2023-04-12T20:33:43.055Z,2.40
2023-04-12T20:36:13.212Z,1.63
2023-04-12T20:38:40.558Z,1.80
2023-04-12T20:41:07.280Z,3.47
2023-04-12T20:43:41.151Z,1.50
2023-04-12T20:46:14.507Z,1.03
2023-04-12T20:48:43.076Z,1.43
2023-04-12T20:51:13.734Z,1.37
2023-04-12T20:53:41.005Z,0.87
2023-04-12T20:56:10.272Z,3.13
2023-04-12T20:58:37.823Z,0.80
2023-04-12T21:01:06.032Z,1.10
2023-04-12T21:03:33.698Z,0.60
2023-04-12T21:06:01.761Z,0.50
2023-04-12T21:08:33.669Z,0.40
2023-04-12T21:11:02.622Z,0.50
2023-04-12T21:13:33.341Z,0.97
2023-04-12T21:16:02.295Z,0.50
2023-04-12T21:18:29.068Z,1.57
2023-04-12T21:21:01.606Z,1.53
2023-04-12T21:23:32.954Z,1.43
2023-04-12T21:25:59.607Z,1.33
2023-04-12T21:28:26.316Z,4.03
2023-04-12T21:30:55.241Z,5.50
2023-04-12T21:33:25.203Z,2.90
2023-04-12T21:35:55.590Z,2.70
2023-04-12T21:38:25.061Z,1.70
2023-04-12T21:40:51.998Z,1.47
2023-04-12T21:43:18.969Z,1.80
2023-04-12T21:45:46.069Z,1.00
2023-04-12T21:48:14.653Z,1.10
2023-04-12T21:50:41.893Z,1.10
2023-04-12T21:53:11.148Z,0.73
2023-04-12T21:55:37.904Z,1.67
2023-04-12T21:58:07.176Z,0.60
2023-04-12T22:00:36.926Z,1.47
2023-04-12T22:03:04.192Z,0.67
2023-04-12T22:05:33.329Z,0.50
2023-04-12T22:08:00.117Z,0.40
2023-04-12T22:10:27.364Z,0.47
2023-04-12T22:12:54.040Z,0.30
2023-04-12T22:15:20.849Z,0.37
2023-04-12T22:17:48.299Z,0.30
2023-04-12T22:20:17.761Z,0.83
2023-04-12T22:22:44.520Z,0.63
2023-04-12T22:25:15.131Z,1.30
2023-04-12T22:27:47.790Z,0.50
2023-04-12T22:30:16.668Z,1.17
2023-04-12T22:32:43.655Z,0.60
2023-04-12T22:35:10.698Z,0.50
2023-04-12T22:37:39.067Z,0.70
2023-04-12T22:40:11.297Z,1.00
2023-04-12T22:42:45.861Z,0.60
2023-04-12T22:45:16.242Z,0.67
2023-04-12T22:47:44.137Z,0.53
2023-04-12T22:50:12.586Z,1.43
2023-04-12T22:52:40.191Z,0.33
2023-04-12T22:55:14.478Z,1.33
2023-04-12T22:57:46.917Z,0.40
2023-04-12T23:00:16.993Z,0.77
2023-04-12T23:02:45.822Z,0.30
2023-04-12T23:05:13.861Z,1.07
2023-04-12T23:07:43.518Z,0.60
2023-04-12T23:10:12.812Z,0.60
2023-04-12T23:12:42.013Z,0.40
2023-04-12T23:15:09.397Z,3.23
2023-04-12T23:17:36.801Z,1.70
2023-04-12T23:20:10.017Z,0.40
2023-04-12T23:22:56.864Z,0.30
2023-04-12T23:25:39.040Z,4.03
2023-04-12T23:28:14.556Z,0.40
2023-04-12T23:30:49.845Z,2.17
2023-04-12T23:33:25.074Z,1.17
2023-04-12T23:35:53.042Z,2.67
2023-04-12T23:38:24.230Z,0.53
2023-04-12T23:40:54.240Z,0.43
2023-04-12T23:43:28.158Z,1.23
2023-04-12T23:45:57.700Z,2.90
2023-04-12T23:48:27.200Z,2.95
2023-04-12T23:50:56.647Z,0.80
2023-04-12T23:53:25.834Z,1.03
2023-04-12T23:55:55.508Z,0.73
2023-04-12T23:58:22.306Z,0.83
